Portada
METAR-TAF:

METAR-TAF

Aeroports :

Lo Luc, França

latitud: 43-23N, longitud: 006-23E, altitud: 80 m

Observació

L'informe es va fer fa 20 minuts, a les 05:00 UTC
Vent 1 kt amb direcció variable
Temperatura 12°C
Humitat 82%
Pressió 1017 hPa
Visibilitat 10 km o més

METAR: LFMC 010500Z AUTO VRB01KT 9999 ////// 12/09 Q1017

Hora: 07:20 (05:20 UTC)


TAF: manca

Observacions i pronòstics meteorològics de més de 4000 aeroports (METAR i TAF).

Les estacions disponibles són els punts grocs i vermells al mapa.

Posi el ratolí al punt desitjat per veure el nom de l'estació.

Feu clic per veure les observacions i els pronòstics meteorològics.

Per canviar el mapa: feu clic els botons verds amb una creu de color negre per apropar; al botó verd amb un guió per allunyar la imatge; o en les fletxes verdes per a mapes adjacents.


METAR-TAF: